sensor_id;sensor_type;location;lat;lon;timestamp;P1;durP1;ratioP1;P2;durP2;ratioP2
41466;SDS011;27205;53.690;19.948;2023-04-02T00:01:51;1.00;;;1.00;;
41466;SDS011;27205;53.690;19.948;2023-04-02T00:06:55;0.80;;;0.80;;
41466;SDS011;27205;53.690;19.948;2023-04-02T00:12:32;1.10;;;1.10;;
41466;SDS011;27205;53.690;19.948;2023-04-02T00:17:36;1.30;;;1.30;;
41466;SDS011;27205;53.690;19.948;2023-04-02T00:22:42;1.60;;;1.50;;
41466;SDS011;27205;53.690;19.948;2023-04-02T00:27:46;1.50;;;1.50;;
41466;SDS011;27205;53.690;19.948;2023-04-02T00:32:50;1.40;;;1.30;;
41466;SDS011;27205;53.690;19.948;2023-04-02T00:37:54;1.40;;;1.40;;
41466;SDS011;27205;53.690;19.948;2023-04-02T00:42:59;1.80;;;1.70;;
41466;SDS011;27205;53.690;19.948;2023-04-02T00:48:14;1.70;;;1.60;;
41466;SDS011;27205;53.690;19.948;2023-04-02T00:53:27;1.60;;;1.60;;
41466;SDS011;27205;53.690;19.948;2023-04-02T00:58:33;1.80;;;1.70;;
41466;SDS011;27205;53.690;19.948;2023-04-02T01:03:38;2.00;;;1.90;;
41466;SDS011;27205;53.690;19.948;2023-04-02T01:25:03;1.50;;;1.50;;
41466;SDS011;27205;53.690;19.948;2023-04-02T01:30:08;1.10;;;1.10;;
41466;SDS011;27205;53.690;19.948;2023-04-02T01:35:14;3.20;;;3.00;;
41466;SDS011;27205;53.690;19.948;2023-04-02T01:45:27;2.90;;;2.80;;
41466;SDS011;27205;53.690;19.948;2023-04-02T01:50:35;2.70;;;2.60;;
41466;SDS011;27205;53.690;19.948;2023-04-02T01:55:52;2.70;;;2.60;;
41466;SDS011;27205;53.690;19.948;2023-04-02T02:00:59;3.00;;;2.90;;
41466;SDS011;27205;53.690;19.948;2023-04-02T02:06:08;3.40;;;3.20;;
41466;SDS011;27205;53.690;19.948;2023-04-02T02:11:19;4.10;;;3.90;;
41466;SDS011;27205;53.690;19.948;2023-04-02T02:16:25;3.70;;;3.50;;
41466;SDS011;27205;53.690;19.948;2023-04-02T02:21:37;3.50;;;3.30;;
41466;SDS011;27205;53.690;19.948;2023-04-02T02:26:45;3.20;;;3.10;;
41466;SDS011;27205;53.690;19.948;2023-04-02T02:31:52;3.60;;;3.40;;
41466;SDS011;27205;53.690;19.948;2023-04-02T02:37:34;3.50;;;3.30;;
41466;SDS011;27205;53.690;19.948;2023-04-02T02:42:38;3.10;;;3.00;;
41466;SDS011;27205;53.690;19.948;2023-04-02T02:47:48;3.50;;;3.30;;
41466;SDS011;27205;53.690;19.948;2023-04-02T02:52:56;2.80;;;2.70;;
41466;SDS011;27205;53.690;19.948;2023-04-02T02:58:04;2.20;;;2.10;;
41466;SDS011;27205;53.690;19.948;2023-04-02T03:03:13;2.60;;;2.50;;
41466;SDS011;27205;53.690;19.948;2023-04-02T03:08:27;2.40;;;2.30;;
41466;SDS011;27205;53.690;19.948;2023-04-02T03:13:38;1.90;;;1.80;;
41466;SDS011;27205;53.690;19.948;2023-04-02T03:19:00;2.50;;;2.40;;
41466;SDS011;27205;53.690;19.948;2023-04-02T03:29:24;2.70;;;2.50;;
41466;SDS011;27205;53.690;19.948;2023-04-02T03:34:34;2.30;;;2.20;;
41466;SDS011;27205;53.690;19.948;2023-04-02T03:55:26;3.30;;;3.10;;
41466;SDS011;27205;53.690;19.948;2023-04-02T04:05:43;3.00;;;2.80;;
41466;SDS011;27205;53.690;19.948;2023-04-02T04:16:01;2.40;;;2.30;;
41466;SDS011;27205;53.690;19.948;2023-04-02T04:21:31;2.60;;;2.50;;
41466;SDS011;27205;53.690;19.948;2023-04-02T04:26:53;2.60;;;2.50;;
41466;SDS011;27205;53.690;19.948;2023-04-02T04:32:30;1.90;;;1.80;;
41466;SDS011;27205;53.690;19.948;2023-04-02T04:37:36;2.10;;;2.00;;
41466;SDS011;27205;53.690;19.948;2023-04-02T04:42:45;3.20;;;3.10;;
41466;SDS011;27205;53.690;19.948;2023-04-02T04:48:01;3.00;;;2.90;;
41466;SDS011;27205;53.690;19.948;2023-04-02T04:53:21;3.50;;;3.30;;
41466;SDS011;27205;53.690;19.948;2023-04-02T04:58:34;2.10;;;2.00;;
41466;SDS011;27205;53.690;19.948;2023-04-02T05:08:58;2.70;;;2.60;;
41466;SDS011;27205;53.690;19.948;2023-04-02T05:14:17;2.60;;;2.50;;
41466;SDS011;27205;53.690;19.948;2023-04-02T05:19:38;2.30;;;2.20;;
41466;SDS011;27205;53.690;19.948;2023-04-02T05:30:34;2.40;;;2.30;;
41466;SDS011;27205;53.690;19.948;2023-04-02T05:35:53;1.80;;;1.70;;
41466;SDS011;27205;53.690;19.948;2023-04-02T06:11:48;1.80;;;1.70;;
41466;SDS011;27205;53.690;19.948;2023-04-02T06:17:02;3.10;;;2.90;;
41466;SDS011;27205;53.690;19.948;2023-04-02T06:22:50;1.30;;;1.30;;
41466;SDS011;27205;53.690;19.948;2023-04-02T06:34:05;1.10;;;1.10;;
41466;SDS011;27205;53.690;19.948;2023-04-02T06:39:19;1.80;;;1.70;;
41466;SDS011;27205;53.690;19.948;2023-04-02T06:44:25;2.10;;;1.90;;
41466;SDS011;27205;53.690;19.948;2023-04-02T06:49:41;2.00;;;1.90;;
41466;SDS011;27205;53.690;19.948;2023-04-02T06:54:47;2.30;;;2.20;;
41466;SDS011;27205;53.690;19.948;2023-04-02T06:59:50;2.20;;;2.00;;
41466;SDS011;27205;53.690;19.948;2023-04-02T07:04:59;1.30;;;1.20;;
41466;SDS011;27205;53.690;19.948;2023-04-02T07:10:05;2.10;;;2.00;;
41466;SDS011;27205;53.690;19.948;2023-04-02T07:15:13;2.10;;;2.00;;
41466;SDS011;27205;53.690;19.948;2023-04-02T07:20:33;1.70;;;1.60;;
41466;SDS011;27205;53.690;19.948;2023-04-02T07:25:40;2.60;;;2.50;;
41466;SDS011;27205;53.690;19.948;2023-04-02T07:30:44;1.80;;;1.70;;
41466;SDS011;27205;53.690;19.948;2023-04-02T07:35:48;2.30;;;2.20;;
41466;SDS011;27205;53.690;19.948;2023-04-02T07:45:55;3.50;;;3.30;;
41466;SDS011;27205;53.690;19.948;2023-04-02T07:50:59;2.70;;;2.50;;
41466;SDS011;27205;53.690;19.948;2023-04-02T07:56:05;2.10;;;2.00;;
41466;SDS011;27205;53.690;19.948;2023-04-02T08:01:20;2.10;;;2.00;;
41466;SDS011;27205;53.690;19.948;2023-04-02T08:06:27;1.70;;;1.60;;
41466;SDS011;27205;53.690;19.948;2023-04-02T08:16:48;3.00;;;2.70;;
41466;SDS011;27205;53.690;19.948;2023-04-02T08:21:53;2.80;;;2.60;;
41466;SDS011;27205;53.690;19.948;2023-04-02T08:26:58;1.90;;;1.80;;
41466;SDS011;27205;53.690;19.948;2023-04-02T08:32:01;2.80;;;2.50;;
41466;SDS011;27205;53.690;19.948;2023-04-02T08:37:05;3.00;;;2.80;;
41466;SDS011;27205;53.690;19.948;2023-04-02T08:47:15;2.40;;;2.30;;
41466;SDS011;27205;53.690;19.948;2023-04-02T08:52:23;4.80;;;4.40;;
41466;SDS011;27205;53.690;19.948;2023-04-02T08:57:46;5.30;;;4.90;;
41466;SDS011;27205;53.690;19.948;2023-04-02T09:03:05;2.60;;;2.40;;
41466;SDS011;27205;53.690;19.948;2023-04-02T09:13:25;2.50;;;2.30;;
41466;SDS011;27205;53.690;19.948;2023-04-02T09:18:30;3.40;;;3.20;;
41466;SDS011;27205;53.690;19.948;2023-04-02T09:23:35;3.30;;;3.00;;
41466;SDS011;27205;53.690;19.948;2023-04-02T09:28:38;4.20;;;3.80;;
41466;SDS011;27205;53.690;19.948;2023-04-02T09:33:44;2.60;;;2.40;;
41466;SDS011;27205;53.690;19.948;2023-04-02T09:38:58;3.50;;;3.20;;
41466;SDS011;27205;53.690;19.948;2023-04-02T09:44:26;2.90;;;2.70;;
41466;SDS011;27205;53.690;19.948;2023-04-02T09:49:34;3.60;;;3.30;;
41466;SDS011;27205;53.690;19.948;2023-04-02T09:54:39;2.70;;;2.50;;
41466;SDS011;27205;53.690;19.948;2023-04-02T09:59:46;3.90;;;3.60;;
41466;SDS011;27205;53.690;19.948;2023-04-02T10:04:49;3.50;;;3.20;;
41466;SDS011;27205;53.690;19.948;2023-04-02T10:09:57;3.40;;;3.20;;
41466;SDS011;27205;53.690;19.948;2023-04-02T10:15:02;2.80;;;2.60;;
41466;SDS011;27205;53.690;19.948;2023-04-02T10:25:33;1.90;;;1.80;;
41466;SDS011;27205;53.690;19.948;2023-04-02T10:30:56;2.10;;;2.00;;
41466;SDS011;27205;53.690;19.948;2023-04-02T10:52:28;2.10;;;2.00;;
41466;SDS011;27205;53.690;19.948;2023-04-02T10:57:40;1.60;;;1.50;;
41466;SDS011;27205;53.690;19.948;2023-04-02T11:13:53;2.20;;;2.10;;
41466;SDS011;27205;53.690;19.948;2023-04-02T11:29:26;1.50;;;1.40;;
41466;SDS011;27205;53.690;19.948;2023-04-02T11:55:33;1.40;;;1.40;;
41466;SDS011;27205;53.690;19.948;2023-04-02T12:06:31;0.60;;;0.60;;
41466;SDS011;27205;53.690;19.948;2023-04-02T12:11:38;0.90;;;0.90;;
41466;SDS011;27205;53.690;19.948;2023-04-02T12:16:42;2.10;;;1.20;;
41466;SDS011;27205;53.690;19.948;2023-04-02T12:21:46;2.30;;;2.10;;
41466;SDS011;27205;53.690;19.948;2023-04-02T12:27:09;1.40;;;1.30;;
41466;SDS011;27205;53.690;19.948;2023-04-02T12:32:29;0.80;;;0.80;;
41466;SDS011;27205;53.690;19.948;2023-04-02T12:37:32;0.70;;;0.70;;
41466;SDS011;27205;53.690;19.948;2023-04-02T12:42:36;1.40;;;0.60;;
41466;SDS011;27205;53.690;19.948;2023-04-02T12:47:42;1.90;;;0.90;;
41466;SDS011;27205;53.690;19.948;2023-04-02T12:52:51;0.70;;;0.60;;
41466;SDS011;27205;53.690;19.948;2023-04-02T12:57:57;0.60;;;0.60;;
41466;SDS011;27205;53.690;19.948;2023-04-02T13:08:18;0.80;;;0.50;;
41466;SDS011;27205;53.690;19.948;2023-04-02T13:13:28;1.60;;;1.50;;
41466;SDS011;27205;53.690;19.948;2023-04-02T13:18:36;0.70;;;0.70;;
41466;SDS011;27205;53.690;19.948;2023-04-02T13:23:40;1.10;;;0.70;;
41466;SDS011;27205;53.690;19.948;2023-04-02T13:28:57;0.50;;;0.50;;
41466;SDS011;27205;53.690;19.948;2023-04-02T13:34:04;0.50;;;0.50;;
41466;SDS011;27205;53.690;19.948;2023-04-02T13:39:07;0.80;;;0.80;;
41466;SDS011;27205;53.690;19.948;2023-04-02T13:44:29;0.60;;;0.60;;
41466;SDS011;27205;53.690;19.948;2023-04-02T13:49:34;0.70;;;0.70;;
41466;SDS011;27205;53.690;19.948;2023-04-02T13:59:53;0.60;;;0.60;;
41466;SDS011;27205;53.690;19.948;2023-04-02T14:10:21;1.70;;;1.30;;
41466;SDS011;27205;53.690;19.948;2023-04-02T14:31:18;1.00;;;0.90;;
41466;SDS011;27205;53.690;19.948;2023-04-02T14:47:23;1.60;;;1.50;;
41466;SDS011;27205;53.690;19.948;2023-04-02T14:52:32;1.10;;;0.90;;
41466;SDS011;27205;53.690;19.948;2023-04-02T14:57:37;0.80;;;0.60;;
41466;SDS011;27205;53.690;19.948;2023-04-02T15:13:18;0.60;;;0.60;;
41466;SDS011;27205;53.690;19.948;2023-04-02T15:18:27;1.20;;;1.10;;
41466;SDS011;27205;53.690;19.948;2023-04-02T15:34:40;1.50;;;0.90;;
41466;SDS011;27205;53.690;19.948;2023-04-02T15:40:26;1.20;;;1.10;;
41466;SDS011;27205;53.690;19.948;2023-04-02T16:01:52;1.30;;;1.30;;
41466;SDS011;27205;53.690;19.948;2023-04-02T16:12:32;1.50;;;1.40;;
41466;SDS011;27205;53.690;19.948;2023-04-02T16:17:40;1.30;;;1.20;;
41466;SDS011;27205;53.690;19.948;2023-04-02T16:22:51;2.00;;;1.90;;
41466;SDS011;27205;53.690;19.948;2023-04-02T17:00:27;1.80;;;1.70;;
41466;SDS011;27205;53.690;19.948;2023-04-02T17:21:30;1.10;;;1.00;;
41466;SDS011;27205;53.690;19.948;2023-04-02T17:26:34;1.20;;;1.10;;
41466;SDS011;27205;53.690;19.948;2023-04-02T17:31:41;1.90;;;1.80;;
41466;SDS011;27205;53.690;19.948;2023-04-02T17:47:22;1.50;;;1.40;;
41466;SDS011;27205;53.690;19.948;2023-04-02T18:48:51;2.10;;;1.50;;
41466;SDS011;27205;53.690;19.948;2023-04-02T19:04:46;1.90;;;1.80;;
41466;SDS011;27205;53.690;19.948;2023-04-02T19:09:55;2.30;;;2.10;;
41466;SDS011;27205;53.690;19.948;2023-04-02T19:15:15;2.40;;;2.20;;
41466;SDS011;27205;53.690;19.948;2023-04-02T19:25:56;2.70;;;2.40;;
41466;SDS011;27205;53.690;19.948;2023-04-02T19:36:20;2.00;;;1.50;;
41466;SDS011;27205;53.690;19.948;2023-04-02T19:46:46;1.60;;;1.50;;
41466;SDS011;27205;53.690;19.948;2023-04-02T19:51:49;1.90;;;1.70;;
41466;SDS011;27205;53.690;19.948;2023-04-02T19:56:54;2.10;;;1.60;;
41466;SDS011;27205;53.690;19.948;2023-04-02T20:01:57;1.70;;;1.10;;
41466;SDS011;27205;53.690;19.948;2023-04-02T20:07:01;2.40;;;1.80;;
41466;SDS011;27205;53.690;19.948;2023-04-02T20:12:04;2.20;;;1.50;;
41466;SDS011;27205;53.690;19.948;2023-04-02T20:17:08;3.20;;;1.80;;
41466;SDS011;27205;53.690;19.948;2023-04-02T20:22:11;1.50;;;1.40;;
41466;SDS011;27205;53.690;19.948;2023-04-02T20:27:15;1.60;;;1.20;;
41466;SDS011;27205;53.690;19.948;2023-04-02T20:32:18;1.70;;;1.40;;
41466;SDS011;27205;53.690;19.948;2023-04-02T20:37:22;1.10;;;0.90;;
41466;SDS011;27205;53.690;19.948;2023-04-02T20:42:25;2.30;;;1.70;;
41466;SDS011;27205;53.690;19.948;2023-04-02T20:47:29;2.30;;;1.90;;
41466;SDS011;27205;53.690;19.948;2023-04-02T20:52:33;4.20;;;2.60;;
41466;SDS011;27205;53.690;19.948;2023-04-02T20:57:37;2.50;;;1.90;;
41466;SDS011;27205;53.690;19.948;2023-04-02T21:02:41;2.90;;;1.90;;
41466;SDS011;27205;53.690;19.948;2023-04-02T21:07:45;1.40;;;1.00;;
41466;SDS011;27205;53.690;19.948;2023-04-02T21:12:50;1.70;;;1.60;;
41466;SDS011;27205;53.690;19.948;2023-04-02T21:17:53;2.10;;;1.70;;
41466;SDS011;27205;53.690;19.948;2023-04-02T21:22:57;1.80;;;1.40;;
41466;SDS011;27205;53.690;19.948;2023-04-02T21:28:01;3.60;;;2.00;;
41466;SDS011;27205;53.690;19.948;2023-04-02T21:33:04;2.80;;;2.50;;
41466;SDS011;27205;53.690;19.948;2023-04-02T21:38:08;2.40;;;2.10;;
41466;SDS011;27205;53.690;19.948;2023-04-02T21:43:11;1.90;;;1.50;;
41466;SDS011;27205;53.690;19.948;2023-04-02T21:48:15;2.10;;;1.40;;
41466;SDS011;27205;53.690;19.948;2023-04-02T21:53:18;1.80;;;1.50;;
41466;SDS011;27205;53.690;19.948;2023-04-02T21:58:22;2.40;;;1.40;;
41466;SDS011;27205;53.690;19.948;2023-04-02T22:03:25;2.00;;;1.60;;
41466;SDS011;27205;53.690;19.948;2023-04-02T22:08:34;3.00;;;1.60;;
41466;SDS011;27205;53.690;19.948;2023-04-02T22:18:42;2.60;;;1.80;;
41466;SDS011;27205;53.690;19.948;2023-04-02T22:28:51;1.80;;;1.50;;
41466;SDS011;27205;53.690;19.948;2023-04-02T22:33:55;2.10;;;1.00;;
41466;SDS011;27205;53.690;19.948;2023-04-02T22:38:59;1.70;;;1.50;;
41466;SDS011;27205;53.690;19.948;2023-04-02T22:44:08;1.80;;;1.40;;
41466;SDS011;27205;53.690;19.948;2023-04-02T22:49:16;3.20;;;1.80;;
41466;SDS011;27205;53.690;19.948;2023-04-02T22:54:21;2.90;;;2.00;;
41466;SDS011;27205;53.690;19.948;2023-04-02T22:59:24;3.10;;;1.50;;
41466;SDS011;27205;53.690;19.948;2023-04-02T23:04:28;0.80;;;0.80;;
41466;SDS011;27205;53.690;19.948;2023-04-02T23:09:32;1.50;;;1.10;;
41466;SDS011;27205;53.690;19.948;2023-04-02T23:14:35;1.90;;;1.40;;
41466;SDS011;27205;53.690;19.948;2023-04-02T23:19:39;2.10;;;1.40;;
41466;SDS011;27205;53.690;19.948;2023-04-02T23:24:42;2.40;;;1.90;;
41466;SDS011;27205;53.690;19.948;2023-04-02T23:29:46;1.30;;;1.00;;
41466;SDS011;27205;53.690;19.948;2023-04-02T23:34:50;1.50;;;1.20;;
41466;SDS011;27205;53.690;19.948;2023-04-02T23:39:54;1.20;;;1.10;;
41466;SDS011;27205;53.690;19.948;2023-04-02T23:44:57;2.70;;;1.60;;
41466;SDS011;27205;53.690;19.948;2023-04-02T23:50:01;2.00;;;1.80;;
41466;SDS011;27205;53.690;19.948;2023-04-02T23:55:05;1.90;;;1.70;;
